Terminal Aerodrome Forecast
Issued by NWS Bismarck, ND

Home | Current Version | Previous Version | Graphics & Text | Print | Product List | Glossary On
Versions: 1 2 3 4 5 6 7 8 9 10 11 12 13 14 15 16 17 18 19 20 21 22
747
FTUS43 KBIS 282255 AAE
TAFBIS
TAF AMD
KBIS 282255Z 2823/2918 33025G35KT P6SM SCT090
     FM290200 34015G23KT P6SM SCT110
     FM290400 33007KT P6SM SCT120
     FM291400 32014G23KT P6SM BKN030=

USA.gov is the U.S. government's official web portal to all federal, state and local government web resources and services.